sensor_id;sensor_type;location;lat;lon;timestamp;pressure;altitude;pressure_sealevel;temperature;humidity
64841;BME280;51307;52.162;7.560;2023-07-09T00:00:23;101277.78;;;25.44;37.12
64841;BME280;51307;52.162;7.560;2023-07-09T00:02:49;101271.72;;;25.42;37.71
64841;BME280;51307;52.162;7.560;2023-07-09T00:05:16;101273.06;;;25.39;37.17
64841;BME280;51307;52.162;7.560;2023-07-09T00:07:44;101270.63;;;25.26;37.31
64841;BME280;51307;52.162;7.560;2023-07-09T00:10:19;101279.34;;;25.23;37.42
64841;BME280;51307;52.162;7.560;2023-07-09T00:12:46;101277.56;;;25.16;37.75
64841;BME280;51307;52.162;7.560;2023-07-09T00:15:14;101285.94;;;25.10;38.59
64841;BME280;51307;52.162;7.560;2023-07-09T00:17:41;101279.47;;;25.16;38.00
64841;BME280;51307;52.162;7.560;2023-07-09T00:20:16;101279.72;;;25.14;38.57
64841;BME280;51307;52.162;7.560;2023-07-09T00:22:43;101289.41;;;25.05;38.37
64841;BME280;51307;52.162;7.560;2023-07-09T00:25:19;101290.97;;;25.01;38.60
64841;BME280;51307;52.162;7.560;2023-07-09T00:27:45;101286.19;;;25.08;39.07
64841;BME280;51307;52.162;7.560;2023-07-09T00:30:21;101284.00;;;24.93;39.15
64841;BME280;51307;52.162;7.560;2023-07-09T00:32:50;101282.00;;;24.89;39.27
64841;BME280;51307;52.162;7.560;2023-07-09T00:35:17;101282.38;;;24.80;39.36
64841;BME280;51307;52.162;7.560;2023-07-09T00:37:44;101276.56;;;24.77;38.95
64841;BME280;51307;52.162;7.560;2023-07-09T00:40:20;101272.88;;;24.71;39.46
64841;BME280;51307;52.162;7.560;2023-07-09T00:42:52;101282.94;;;24.54;40.04
64841;BME280;51307;52.162;7.560;2023-07-09T00:45:24;101274.50;;;24.55;39.55
64841;BME280;51307;52.162;7.560;2023-07-09T00:48:14;101273.09;;;24.53;39.70
64841;BME280;51307;52.162;7.560;2023-07-09T00:50:50;101275.69;;;24.47;38.83
64841;BME280;51307;52.162;7.560;2023-07-09T00:53:25;101274.00;;;24.46;39.07
64841;BME280;51307;52.162;7.560;2023-07-09T00:56:08;101273.09;;;24.53;39.91
64841;BME280;51307;52.162;7.560;2023-07-09T00:58:38;101276.25;;;24.49;39.14
64841;BME280;51307;52.162;7.560;2023-07-09T01:01:09;101265.94;;;24.40;39.86
64841;BME280;51307;52.162;7.560;2023-07-09T01:03:53;101270.25;;;24.76;38.83
64841;BME280;51307;52.162;7.560;2023-07-09T01:06:31;101270.94;;;24.43;39.54
64841;BME280;51307;52.162;7.560;2023-07-09T01:08:59;101274.50;;;24.43;39.08
64841;BME280;51307;52.162;7.560;2023-07-09T01:11:26;101268.31;;;24.36;39.31
64841;BME280;51307;52.162;7.560;2023-07-09T01:13:59;101268.94;;;24.38;39.72
64841;BME280;51307;52.162;7.560;2023-07-09T01:16:37;101272.84;;;24.30;39.87
64841;BME280;51307;52.162;7.560;2023-07-09T01:19:05;101271.13;;;24.12;41.00
64841;BME280;51307;52.162;7.560;2023-07-09T01:21:30;101278.69;;;24.34;39.73
64841;BME280;51307;52.162;7.560;2023-07-09T01:23:58;101273.97;;;24.18;40.31
64841;BME280;51307;52.162;7.560;2023-07-09T01:26:26;101274.31;;;24.21;40.97
64841;BME280;51307;52.162;7.560;2023-07-09T01:28:56;101278.03;;;24.03;41.36
64841;BME280;51307;52.162;7.560;2023-07-09T01:31:23;101277.19;;;24.03;41.35
64841;BME280;51307;52.162;7.560;2023-07-09T01:33:48;101275.78;;;23.88;41.12
64841;BME280;51307;52.162;7.560;2023-07-09T01:36:19;101280.38;;;23.76;41.53
64841;BME280;51307;52.162;7.560;2023-07-09T01:38:51;101281.09;;;23.83;41.55
64841;BME280;51307;52.162;7.560;2023-07-09T01:41:17;101275.41;;;23.85;42.11
64841;BME280;51307;52.162;7.560;2023-07-09T01:43:43;101276.13;;;23.92;42.39
64841;BME280;51307;52.162;7.560;2023-07-09T01:46:11;101274.09;;;23.87;41.78
64841;BME280;51307;52.162;7.560;2023-07-09T01:48:40;101271.63;;;23.86;41.53
64841;BME280;51307;52.162;7.560;2023-07-09T01:51:12;101268.03;;;23.73;41.41
64841;BME280;51307;52.162;7.560;2023-07-09T01:53:43;101264.94;;;23.70;41.27
64841;BME280;51307;52.162;7.560;2023-07-09T01:56:10;101263.88;;;23.71;41.72
64841;BME280;51307;52.162;7.560;2023-07-09T01:58:36;101268.59;;;23.63;42.27
64841;BME280;51307;52.162;7.560;2023-07-09T02:01:02;101263.16;;;23.52;42.32
64841;BME280;51307;52.162;7.560;2023-07-09T02:03:27;101263.97;;;23.64;41.41
64841;BME280;51307;52.162;7.560;2023-07-09T02:05:54;101264.34;;;23.56;41.62
64841;BME280;51307;52.162;7.560;2023-07-09T02:08:19;101261.38;;;23.69;41.30
64841;BME280;51307;52.162;7.560;2023-07-09T02:10:48;101256.47;;;23.59;40.90
64841;BME280;51307;52.162;7.560;2023-07-09T02:13:14;101256.50;;;23.47;41.25
64841;BME280;51307;52.162;7.560;2023-07-09T02:15:39;101267.88;;;23.44;41.46
64841;BME280;51307;52.162;7.560;2023-07-09T02:18:09;101267.91;;;23.68;40.92
64841;BME280;51307;52.162;7.560;2023-07-09T02:20:35;101273.31;;;23.44;41.34
64841;BME280;51307;52.162;7.560;2023-07-09T02:23:02;101273.72;;;23.60;41.24
64841;BME280;51307;52.162;7.560;2023-07-09T02:25:27;101272.53;;;23.56;41.39
64841;BME280;51307;52.162;7.560;2023-07-09T02:27:53;101261.00;;;23.54;41.63
64841;BME280;51307;52.162;7.560;2023-07-09T02:30:18;101272.13;;;23.40;41.89
64841;BME280;51307;52.162;7.560;2023-07-09T02:32:44;101277.00;;;23.38;41.88
64841;BME280;51307;52.162;7.560;2023-07-09T02:35:09;101273.19;;;23.39;42.25
64841;BME280;51307;52.162;7.560;2023-07-09T02:37:36;101275.34;;;23.37;42.43
64841;BME280;51307;52.162;7.560;2023-07-09T02:40:03;101279.94;;;23.25;42.42
64841;BME280;51307;52.162;7.560;2023-07-09T02:42:29;101280.09;;;23.30;42.97
64841;BME280;51307;52.162;7.560;2023-07-09T02:44:54;101281.97;;;23.29;42.78
64841;BME280;51307;52.162;7.560;2023-07-09T02:47:20;101282.44;;;23.26;43.05
64841;BME280;51307;52.162;7.560;2023-07-09T02:49:45;101281.94;;;23.18;43.24
64841;BME280;51307;52.162;7.560;2023-07-09T02:52:11;101279.50;;;23.09;43.60
64841;BME280;51307;52.162;7.560;2023-07-09T02:54:36;101296.06;;;22.96;44.01
64841;BME280;51307;52.162;7.560;2023-07-09T02:57:02;101294.50;;;23.19;43.94
64841;BME280;51307;52.162;7.560;2023-07-09T02:59:28;101290.75;;;23.01;44.03
64841;BME280;51307;52.162;7.560;2023-07-09T03:01:55;101300.47;;;22.97;43.72
64841;BME280;51307;52.162;7.560;2023-07-09T03:04:21;101299.50;;;22.91;44.19
64841;BME280;51307;52.162;7.560;2023-07-09T03:06:46;101294.88;;;22.92;44.89
64841;BME280;51307;52.162;7.560;2023-07-09T03:09:12;101295.66;;;22.80;44.40
64841;BME280;51307;52.162;7.560;2023-07-09T03:11:38;101298.47;;;22.74;44.24
64841;BME280;51307;52.162;7.560;2023-07-09T03:14:04;101290.78;;;22.82;44.07
64841;BME280;51307;52.162;7.560;2023-07-09T03:16:32;101299.59;;;22.66;44.64
64841;BME280;51307;52.162;7.560;2023-07-09T03:18:58;101296.06;;;22.65;44.77
64841;BME280;51307;52.162;7.560;2023-07-09T03:21:26;101295.53;;;22.57;44.78
64841;BME280;51307;52.162;7.560;2023-07-09T03:23:52;101304.91;;;22.61;44.73
64841;BME280;51307;52.162;7.560;2023-07-09T03:26:18;101298.88;;;22.59;44.64
64841;BME280;51307;52.162;7.560;2023-07-09T03:28:44;101307.19;;;22.64;44.89
64841;BME280;51307;52.162;7.560;2023-07-09T03:31:09;101302.34;;;22.66;44.76
64841;BME280;51307;52.162;7.560;2023-07-09T03:33:35;101308.66;;;22.67;44.55
64841;BME280;51307;52.162;7.560;2023-07-09T03:36:00;101303.69;;;22.75;44.47
64841;BME280;51307;52.162;7.560;2023-07-09T03:38:26;101306.41;;;22.75;44.27
64841;BME280;51307;52.162;7.560;2023-07-09T03:40:53;101303.06;;;22.73;43.61
64841;BME280;51307;52.162;7.560;2023-07-09T03:43:20;101306.88;;;22.72;43.84
64841;BME280;51307;52.162;7.560;2023-07-09T03:45:47;101308.53;;;22.73;44.12
64841;BME280;51307;52.162;7.560;2023-07-09T03:48:15;101307.53;;;22.86;43.89
64841;BME280;51307;52.162;7.560;2023-07-09T03:50:44;101309.53;;;22.60;44.03
64841;BME280;51307;52.162;7.560;2023-07-09T03:53:10;101304.16;;;22.72;44.02
64841;BME280;51307;52.162;7.560;2023-07-09T03:55:35;101308.19;;;22.70;44.61
64841;BME280;51307;52.162;7.560;2023-07-09T03:58:01;101303.69;;;22.57;44.62
64841;BME280;51307;52.162;7.560;2023-07-09T04:00:30;101305.91;;;22.48;45.15
64841;BME280;51307;52.162;7.560;2023-07-09T04:02:56;101304.69;;;22.62;45.17
64841;BME280;51307;52.162;7.560;2023-07-09T04:05:25;101310.66;;;22.71;44.97
64841;BME280;51307;52.162;7.560;2023-07-09T04:07:51;101310.38;;;22.61;44.90
64841;BME280;51307;52.162;7.560;2023-07-09T04:10:17;101304.84;;;22.68;45.07
64841;BME280;51307;52.162;7.560;2023-07-09T04:12:44;101310.38;;;22.61;45.38
64841;BME280;51307;52.162;7.560;2023-07-09T04:15:11;101309.78;;;22.59;44.78
64841;BME280;51307;52.162;7.560;2023-07-09T04:17:39;101309.16;;;22.57;45.58
64841;BME280;51307;52.162;7.560;2023-07-09T04:20:06;101304.91;;;22.61;45.63
64841;BME280;51307;52.162;7.560;2023-07-09T04:22:33;101304.16;;;22.54;45.45
64841;BME280;51307;52.162;7.560;2023-07-09T04:24:59;101305.59;;;22.56;45.34
64841;BME280;51307;52.162;7.560;2023-07-09T04:27:24;101310.38;;;22.61;45.86
64841;BME280;51307;52.162;7.560;2023-07-09T04:29:53;101305.84;;;22.55;45.02
64841;BME280;51307;52.162;7.560;2023-07-09T04:32:20;101314.75;;;22.62;45.43
64841;BME280;51307;52.162;7.560;2023-07-09T04:34:46;101316.81;;;22.67;45.65
64841;BME280;51307;52.162;7.560;2023-07-09T04:37:12;101313.25;;;22.66;46.35
64841;BME280;51307;52.162;7.560;2023-07-09T04:39:39;101314.53;;;22.63;46.93
64841;BME280;51307;52.162;7.560;2023-07-09T04:42:06;101311.13;;;22.68;47.27
64841;BME280;51307;52.162;7.560;2023-07-09T04:44:35;101313.97;;;22.73;46.67
64841;BME280;51307;52.162;7.560;2023-07-09T04:47:01;101321.44;;;22.66;46.42
64841;BME280;51307;52.162;7.560;2023-07-09T04:49:26;101326.13;;;22.77;46.15
64841;BME280;51307;52.162;7.560;2023-07-09T04:51:52;101326.72;;;22.79;45.56
64841;BME280;51307;52.162;7.560;2023-07-09T04:54:17;101327.09;;;22.83;46.43
64841;BME280;51307;52.162;7.560;2023-07-09T04:56:43;101328.16;;;22.82;46.62
64841;BME280;51307;52.162;7.560;2023-07-09T04:59:12;101325.91;;;22.79;47.70
64841;BME280;51307;52.162;7.560;2023-07-09T05:01:37;101327.59;;;22.92;47.89
64841;BME280;51307;52.162;7.560;2023-07-09T05:04:03;101321.38;;;23.03;46.80
64841;BME280;51307;52.162;7.560;2023-07-09T05:06:29;101310.31;;;23.17;46.91
64841;BME280;51307;52.162;7.560;2023-07-09T05:08:54;101314.94;;;22.97;47.34
64841;BME280;51307;52.162;7.560;2023-07-09T05:11:20;101313.19;;;23.03;47.21
64841;BME280;51307;52.162;7.560;2023-07-09T05:13:45;101319.38;;;23.29;46.77
64841;BME280;51307;52.162;7.560;2023-07-09T05:16:11;101316.88;;;23.27;46.61
64841;BME280;51307;52.162;7.560;2023-07-09T05:18:37;101318.03;;;23.20;46.24
64841;BME280;51307;52.162;7.560;2023-07-09T05:21:03;101307.28;;;23.37;45.66
64841;BME280;51307;52.162;7.560;2023-07-09T05:23:28;101316.22;;;23.56;44.71
64841;BME280;51307;52.162;7.560;2023-07-09T05:25:58;101318.88;;;23.32;44.96
64841;BME280;51307;52.162;7.560;2023-07-09T05:28:24;101313.84;;;23.47;44.88
64841;BME280;51307;52.162;7.560;2023-07-09T05:30:50;101309.03;;;23.31;46.21
64841;BME280;51307;52.162;7.560;2023-07-09T05:33:17;101312.75;;;23.37;46.33
64841;BME280;51307;52.162;7.560;2023-07-09T05:35:43;101306.78;;;23.28;46.86
64841;BME280;51307;52.162;7.560;2023-07-09T05:38:08;101310.22;;;23.23;46.57
64841;BME280;51307;52.162;7.560;2023-07-09T05:40:34;101310.34;;;23.40;45.90
64841;BME280;51307;52.162;7.560;2023-07-09T05:42:59;101314.47;;;23.31;46.50
64841;BME280;51307;52.162;7.560;2023-07-09T05:45:25;101313.72;;;23.54;45.84
64841;BME280;51307;52.162;7.560;2023-07-09T05:47:50;101313.25;;;23.81;45.15
64841;BME280;51307;52.162;7.560;2023-07-09T05:50:16;101316.47;;;23.66;45.25
64841;BME280;51307;52.162;7.560;2023-07-09T05:52:41;101315.28;;;23.74;45.65
64841;BME280;51307;52.162;7.560;2023-07-09T05:55:07;101322.06;;;23.71;45.74
64841;BME280;51307;52.162;7.560;2023-07-09T05:57:32;101324.34;;;23.74;46.32
64841;BME280;51307;52.162;7.560;2023-07-09T06:00:00;101321.03;;;23.96;45.59
64841;BME280;51307;52.162;7.560;2023-07-09T06:02:26;101324.34;;;23.74;45.98
64841;BME280;51307;52.162;7.560;2023-07-09T06:04:51;101324.09;;;23.76;46.55
64841;BME280;51307;52.162;7.560;2023-07-09T06:07:18;101328.13;;;23.73;47.24
64841;BME280;51307;52.162;7.560;2023-07-09T06:09:49;101331.13;;;24.07;45.74
64841;BME280;51307;52.162;7.560;2023-07-09T06:12:15;101327.47;;;24.13;45.04
64841;BME280;51307;52.162;7.560;2023-07-09T06:14:40;101325.22;;;23.98;46.29
64841;BME280;51307;52.162;7.560;2023-07-09T06:17:13;101327.53;;;24.30;45.04
64841;BME280;51307;52.162;7.560;2023-07-09T06:19:38;101327.66;;;24.12;45.48
64841;BME280;51307;52.162;7.560;2023-07-09T06:22:04;101332.31;;;24.35;45.46
64841;BME280;51307;52.162;7.560;2023-07-09T06:24:30;101335.03;;;24.35;45.52
64841;BME280;51307;52.162;7.560;2023-07-09T06:26:55;101335.53;;;24.20;45.77
64841;BME280;51307;52.162;7.560;2023-07-09T06:29:21;101336.81;;;24.29;45.36
64841;BME280;51307;52.162;7.560;2023-07-09T06:31:47;101338.09;;;24.50;45.17
64841;BME280;51307;52.162;7.560;2023-07-09T06:34:12;101338.13;;;24.39;45.27
64841;BME280;51307;52.162;7.560;2023-07-09T06:36:38;101341.88;;;24.73;44.83
64841;BME280;51307;52.162;7.560;2023-07-09T06:39:04;101335.47;;;24.68;45.13
64841;BME280;51307;52.162;7.560;2023-07-09T06:41:31;101339.84;;;24.80;45.03
64841;BME280;51307;52.162;7.560;2023-07-09T06:43:58;101337.88;;;24.64;45.94
64841;BME280;51307;52.162;7.560;2023-07-09T06:46:23;101332.66;;;24.91;46.01
64841;BME280;51307;52.162;7.560;2023-07-09T06:48:49;101334.03;;;24.77;45.88
64841;BME280;51307;52.162;7.560;2023-07-09T06:51:15;101334.22;;;24.87;45.87
64841;BME280;51307;52.162;7.560;2023-07-09T06:53:41;101335.50;;;24.96;45.84
64841;BME280;51307;52.162;7.560;2023-07-09T06:56:08;101332.38;;;25.05;45.19
64841;BME280;51307;52.162;7.560;2023-07-09T06:58:36;101331.53;;;25.04;45.12
64841;BME280;51307;52.162;7.560;2023-07-09T07:01:03;101335.66;;;25.19;45.93
64841;BME280;51307;52.162;7.560;2023-07-09T07:03:30;101321.75;;;25.08;45.72
64841;BME280;51307;52.162;7.560;2023-07-09T07:05:56;101334.97;;;25.11;45.94
64841;BME280;51307;52.162;7.560;2023-07-09T07:08:24;101330.97;;;25.31;44.59
64841;BME280;51307;52.162;7.560;2023-07-09T07:10:55;101337.28;;;25.20;44.72
64841;BME280;51307;52.162;7.560;2023-07-09T07:13:29;101340.94;;;25.37;44.97
64841;BME280;51307;52.162;7.560;2023-07-09T07:15:54;101336.97;;;25.45;44.93
64841;BME280;51307;52.162;7.560;2023-07-09T07:18:20;101337.41;;;25.54;44.83
64841;BME280;51307;52.162;7.560;2023-07-09T07:20:46;101335.72;;;25.53;44.72
64841;BME280;51307;52.162;7.560;2023-07-09T07:23:12;101341.72;;;25.66;44.43
64841;BME280;51307;52.162;7.560;2023-07-09T07:25:38;101334.59;;;25.65;44.36
64841;BME280;51307;52.162;7.560;2023-07-09T07:28:03;101333.34;;;25.56;42.96
64841;BME280;51307;52.162;7.560;2023-07-09T07:30:29;101337.31;;;25.65;43.20
64841;BME280;51307;52.162;7.560;2023-07-09T07:32:55;101338.22;;;25.71;42.84
64841;BME280;51307;52.162;7.560;2023-07-09T07:35:21;101326.50;;;25.76;42.74
64841;BME280;51307;52.162;7.560;2023-07-09T07:37:46;101329.84;;;25.95;42.09
64841;BME280;51307;52.162;7.560;2023-07-09T07:40:12;101335.31;;;25.95;42.19
64841;BME280;51307;52.162;7.560;2023-07-09T07:42:38;101336.47;;;25.99;41.81
64841;BME280;51307;52.162;7.560;2023-07-09T07:45:04;101344.22;;;26.02;42.03
64841;BME280;51307;52.162;7.560;2023-07-09T07:47:30;101345.31;;;26.01;42.46
64841;BME280;51307;52.162;7.560;2023-07-09T07:49:56;101337.97;;;26.07;42.38
64841;BME280;51307;52.162;7.560;2023-07-09T07:52:22;101342.28;;;26.20;42.43
64841;BME280;51307;52.162;7.560;2023-07-09T07:54:48;101336.81;;;26.20;42.21
64841;BME280;51307;52.162;7.560;2023-07-09T07:57:13;101340.78;;;26.29;42.59
64841;BME280;51307;52.162;7.560;2023-07-09T07:59:39;101335.84;;;26.31;42.74
64841;BME280;51307;52.162;7.560;2023-07-09T08:02:11;101342.03;;;26.43;42.63
64841;BME280;51307;52.162;7.560;2023-07-09T08:04:38;101336.56;;;26.43;42.77
64841;BME280;51307;52.162;7.560;2023-07-09T08:07:04;101330.59;;;26.46;42.10
64841;BME280;51307;52.162;7.560;2023-07-09T08:09:29;101328.56;;;26.59;42.35
64841;BME280;51307;52.162;7.560;2023-07-09T08:11:55;101325.38;;;26.67;42.09
64841;BME280;51307;52.162;7.560;2023-07-09T08:14:21;101326.84;;;26.75;42.96
64841;BME280;51307;52.162;7.560;2023-07-09T08:16:47;101320.25;;;26.76;42.45
64841;BME280;51307;52.162;7.560;2023-07-09T08:19:13;101321.91;;;26.77;42.24
64841;BME280;51307;52.162;7.560;2023-07-09T08:21:39;101316.81;;;26.86;42.14
64841;BME280;51307;52.162;7.560;2023-07-09T08:24:05;101325.13;;;26.91;41.82
64841;BME280;51307;52.162;7.560;2023-07-09T08:26:30;101320.75;;;26.95;42.49
64841;BME280;51307;52.162;7.560;2023-07-09T08:28:56;101318.69;;;27.07;43.16
64841;BME280;51307;52.162;7.560;2023-07-09T08:31:22;101327.19;;;27.06;42.87
64841;BME280;51307;52.162;7.560;2023-07-09T08:33:47;101323.66;;;27.10;42.53
64841;BME280;51307;52.162;7.560;2023-07-09T08:36:13;101328.31;;;27.10;42.19
64841;BME280;51307;52.162;7.560;2023-07-09T08:38:38;101324.28;;;27.17;41.58
64841;BME280;51307;52.162;7.560;2023-07-09T08:43:34;101317.25;;;27.27;41.34
64841;BME280;51307;52.162;7.560;2023-07-09T08:48:47;101319.56;;;27.40;40.73
64841;BME280;51307;52.162;7.560;2023-07-09T08:51:15;101321.53;;;27.45;41.41
64841;BME280;51307;52.162;7.560;2023-07-09T08:53:56;101323.50;;;27.49;40.88
64841;BME280;51307;52.162;7.560;2023-07-09T08:56:24;101327.63;;;27.52;40.75
64841;BME280;51307;52.162;7.560;2023-07-09T08:58:53;101317.25;;;27.59;41.12
64841;BME280;51307;52.162;7.560;2023-07-09T09:01:25;101323.00;;;27.58;40.54
64841;BME280;51307;52.162;7.560;2023-07-09T09:06:51;101313.56;;;27.76;40.05
64841;BME280;51307;52.162;7.560;2023-07-09T09:09:22;101321.88;;;27.81;40.50
64841;BME280;51307;52.162;7.560;2023-07-09T09:14:28;101312.88;;;27.96;40.29
64841;BME280;51307;52.162;7.560;2023-07-09T09:16:56;101318.13;;;27.97;40.27
64841;BME280;51307;52.162;7.560;2023-07-09T09:19:31;101320.06;;;28.02;40.32
64841;BME280;51307;52.162;7.560;2023-07-09T09:22:07;101310.53;;;28.15;40.62
64841;BME280;51307;52.162;7.560;2023-07-09T09:27:41;101307.56;;;28.27;40.12
64841;BME280;51307;52.162;7.560;2023-07-09T09:30:20;101311.44;;;28.31;39.83
64841;BME280;51307;52.162;7.560;2023-07-09T09:33:00;101312.03;;;28.38;39.69
64841;BME280;51307;52.162;7.560;2023-07-09T09:35:29;101320.59;;;28.42;39.23
64841;BME280;51307;52.162;7.560;2023-07-09T09:37:57;101319.25;;;28.55;39.99
64841;BME280;51307;52.162;7.560;2023-07-09T09:40:27;101311.00;;;28.60;40.71
64841;BME280;51307;52.162;7.560;2023-07-09T09:42:56;101309.34;;;28.59;40.61
64841;BME280;51307;52.162;7.560;2023-07-09T09:45:34;101307.19;;;28.66;38.91
64841;BME280;51307;52.162;7.560;2023-07-09T09:48:03;101314.34;;;28.72;38.43
64841;BME280;51307;52.162;7.560;2023-07-09T09:50:35;101319.34;;;28.75;38.10
64841;BME280;51307;52.162;7.560;2023-07-09T09:53:01;101313.84;;;28.86;39.29
64841;BME280;51307;52.162;7.560;2023-07-09T09:55:31;101316.06;;;28.89;39.25
64841;BME280;51307;52.162;7.560;2023-07-09T09:57:58;101317.16;;;28.82;37.94
64841;BME280;51307;52.162;7.560;2023-07-09T10:00:29;101314.44;;;28.93;36.93
64841;BME280;51307;52.162;7.560;2023-07-09T10:03:03;101315.25;;;28.93;37.38
64841;BME280;51307;52.162;7.560;2023-07-09T10:05:57;101297.13;;;29.03;38.30
64841;BME280;51307;52.162;7.560;2023-07-09T10:08:29;101296.56;;;29.06;38.38
64841;BME280;51307;52.162;7.560;2023-07-09T10:13:47;101307.91;;;29.20;36.22
64841;BME280;51307;52.162;7.560;2023-07-09T10:16:29;101303.47;;;29.19;38.27
64841;BME280;51307;52.162;7.560;2023-07-09T10:19:30;101307.88;;;29.30;37.58
64841;BME280;51307;52.162;7.560;2023-07-09T10:22:04;101297.44;;;29.32;37.92
64841;BME280;51307;52.162;7.560;2023-07-09T10:25:02;101302.09;;;29.37;38.40
64841;BME280;51307;52.162;7.560;2023-07-09T10:27:37;101296.59;;;29.31;37.40
64841;BME280;51307;52.162;7.560;2023-07-09T10:33:11;101296.34;;;29.54;37.00
64841;BME280;51307;52.162;7.560;2023-07-09T10:40:55;101290.28;;;29.62;36.54
64841;BME280;51307;52.162;7.560;2023-07-09T10:46:12;101288.63;;;29.66;34.34
64841;BME280;51307;52.162;7.560;2023-07-09T10:48:52;101288.34;;;29.73;34.15
64841;BME280;51307;52.162;7.560;2023-07-09T10:51:31;101288.34;;;29.78;34.26
64841;BME280;51307;52.162;7.560;2023-07-09T10:56:39;101281.94;;;29.98;36.27
64841;BME280;51307;52.162;7.560;2023-07-09T10:59:22;101281.41;;;29.91;31.71
64841;BME280;51307;52.162;7.560;2023-07-09T11:02:01;101278.41;;;29.77;31.11
64841;BME280;51307;52.162;7.560;2023-07-09T11:04:41;101276.47;;;29.77;31.28
64841;BME280;51307;52.162;7.560;2023-07-09T11:07:20;101275.91;;;29.86;30.50
64841;BME280;51307;52.162;7.560;2023-07-09T11:09:50;101273.13;;;29.91;30.43
64841;BME280;51307;52.162;7.560;2023-07-09T11:12:39;101271.19;;;29.96;31.07
64841;BME280;51307;52.162;7.560;2023-07-09T11:15:25;101274.25;;;29.90;31.70
64841;BME280;51307;52.162;7.560;2023-07-09T11:17:53;101261.25;;;29.95;31.45
64841;BME280;51307;52.162;7.560;2023-07-09T11:20:32;101263.16;;;30.00;31.70
64841;BME280;51307;52.162;7.560;2023-07-09T11:23:15;101261.22;;;30.06;31.20
64841;BME280;51307;52.162;7.560;2023-07-09T11:25:45;101260.38;;;30.21;31.16
64841;BME280;51307;52.162;7.560;2023-07-09T11:28:12;101260.91;;;30.28;31.67
64841;BME280;51307;52.162;7.560;2023-07-09T11:30:52;101258.66;;;30.35;30.57
64841;BME280;51307;52.162;7.560;2023-07-09T11:33:29;101263.03;;;30.41;29.32
64841;BME280;51307;52.162;7.560;2023-07-09T11:36:08;101260.00;;;30.38;31.56
64841;BME280;51307;52.162;7.560;2023-07-09T11:38:46;101252.00;;;30.41;29.19
64841;BME280;51307;52.162;7.560;2023-07-09T11:41:43;101254.97;;;30.50;32.23
64841;BME280;51307;52.162;7.560;2023-07-09T11:44:25;101251.09;;;30.56;32.79
64841;BME280;51307;52.162;7.560;2023-07-09T11:47:22;101240.06;;;30.56;31.10
64841;BME280;51307;52.162;7.560;2023-07-09T11:50:00;101245.25;;;30.63;33.71
64841;BME280;51307;52.162;7.560;2023-07-09T11:52:33;101244.69;;;30.71;33.02
64841;BME280;51307;52.162;7.560;2023-07-09T11:55:21;101238.00;;;30.82;33.63
64841;BME280;51307;52.162;7.560;2023-07-09T11:57:53;101234.94;;;30.84;34.13
64841;BME280;51307;52.162;7.560;2023-07-09T12:00:19;101224.13;;;30.88;34.18
64841;BME280;51307;52.162;7.560;2023-07-09T12:02:44;101225.25;;;30.87;32.77
64841;BME280;51307;52.162;7.560;2023-07-09T12:05:12;101230.69;;;30.97;32.68
64841;BME280;51307;52.162;7.560;2023-07-09T12:07:40;101223.44;;;31.06;33.72
64841;BME280;51307;52.162;7.560;2023-07-09T12:10:22;101222.91;;;31.04;32.98
64841;BME280;51307;52.162;7.560;2023-07-09T12:12:48;101221.72;;;31.10;32.24
64841;BME280;51307;52.162;7.560;2023-07-09T12:15:21;101220.81;;;31.20;32.90
64841;BME280;51307;52.162;7.560;2023-07-09T12:18:01;101215.06;;;31.16;32.67
64841;BME280;51307;52.162;7.560;2023-07-09T12:20:35;101208.13;;;31.24;33.76
64841;BME280;51307;52.162;7.560;2023-07-09T12:23:22;101194.31;;;31.24;33.43
64841;BME280;51307;52.162;7.560;2023-07-09T12:25:50;101198.41;;;31.27;33.29
64841;BME280;51307;52.162;7.560;2023-07-09T12:28:19;101197.28;;;31.28;33.30
64841;BME280;51307;52.162;7.560;2023-07-09T12:30:50;101188.78;;;31.24;33.13
64841;BME280;51307;52.162;7.560;2023-07-09T12:33:21;101184.56;;;31.27;33.20
64841;BME280;51307;52.162;7.560;2023-07-09T12:35:53;101187.00;;;31.33;33.59
64841;BME280;51307;52.162;7.560;2023-07-09T12:38:22;101189.50;;;31.35;33.48
64841;BME280;51307;52.162;7.560;2023-07-09T12:40:50;101192.44;;;31.44;33.96
64841;BME280;51307;52.162;7.560;2023-07-09T12:43:25;101190.22;;;31.46;33.13
64841;BME280;51307;52.162;7.560;2023-07-09T12:45:53;101191.03;;;31.46;32.81
64841;BME280;51307;52.162;7.560;2023-07-09T12:48:26;101192.63;;;31.53;32.15
64841;BME280;51307;52.162;7.560;2023-07-09T12:50:55;101191.56;;;31.48;33.61
64841;BME280;51307;52.162;7.560;2023-07-09T12:53:24;101191.50;;;31.54;32.91
64841;BME280;51307;52.162;7.560;2023-07-09T12:55:55;101193.03;;;31.65;33.06
64841;BME280;51307;52.162;7.560;2023-07-09T12:58:30;101192.00;;;31.61;33.73
64841;BME280;51307;52.162;7.560;2023-07-09T13:01:04;101193.84;;;31.65;34.38
64841;BME280;51307;52.162;7.560;2023-07-09T13:03:33;101192.56;;;31.58;33.13
64841;BME280;51307;52.162;7.560;2023-07-09T13:06:25;101181.69;;;31.66;33.20
64841;BME280;51307;52.162;7.560;2023-07-09T13:08:56;101170.88;;;31.70;32.67
64841;BME280;51307;52.162;7.560;2023-07-09T13:11:23;101157.84;;;31.71;31.50
64841;BME280;51307;52.162;7.560;2023-07-09T13:14:02;101150.38;;;31.71;31.46
64841;BME280;51307;52.162;7.560;2023-07-09T13:16:29;101161.41;;;31.76;32.42
64841;BME280;51307;52.162;7.560;2023-07-09T13:18:55;101168.75;;;31.86;32.79
64841;BME280;51307;52.162;7.560;2023-07-09T13:21:22;101159.88;;;31.89;32.18
64841;BME280;51307;52.162;7.560;2023-07-09T13:23:48;101159.56;;;31.91;31.50
64841;BME280;51307;52.162;7.560;2023-07-09T13:26:15;101157.41;;;31.88;31.76
64841;BME280;51307;52.162;7.560;2023-07-09T13:28:42;101158.47;;;31.92;31.41
64841;BME280;51307;52.162;7.560;2023-07-09T13:31:13;101152.78;;;32.02;31.60